sensor_id;sensor_type;location;lat;lon;timestamp;P1;durP1;ratioP1;P2;durP2;ratioP2
28844;SDS011;15976;47.938;7.758;2023-07-09T00:02:16;9.63;;;4.32;;
28844;SDS011;15976;47.938;7.758;2023-07-09T00:04:43;7.43;;;4.40;;
28844;SDS011;15976;47.938;7.758;2023-07-09T00:07:18;7.70;;;4.30;;
28844;SDS011;15976;47.938;7.758;2023-07-09T00:09:56;6.60;;;4.28;;
28844;SDS011;15976;47.938;7.758;2023-07-09T00:12:24;8.30;;;4.72;;
28844;SDS011;15976;47.938;7.758;2023-07-09T00:14:52;8.23;;;4.57;;
28844;SDS011;15976;47.938;7.758;2023-07-09T00:19:53;12.32;;;4.57;;
28844;SDS011;15976;47.938;7.758;2023-07-09T00:22:21;5.78;;;4.60;;
28844;SDS011;15976;47.938;7.758;2023-07-09T00:24:51;8.43;;;4.35;;
28844;SDS011;15976;47.938;7.758;2023-07-09T00:27:19;7.25;;;4.70;;
28844;SDS011;15976;47.938;7.758;2023-07-09T00:29:48;10.75;;;4.50;;
28844;SDS011;15976;47.938;7.758;2023-07-09T00:32:17;7.75;;;4.30;;
28844;SDS011;15976;47.938;7.758;2023-07-09T00:34:47;10.75;;;5.10;;
28844;SDS011;15976;47.938;7.758;2023-07-09T00:37:15;7.47;;;4.55;;
28844;SDS011;15976;47.938;7.758;2023-07-09T00:39:46;9.05;;;5.18;;
28844;SDS011;15976;47.938;7.758;2023-07-09T00:42:16;7.55;;;5.07;;
28844;SDS011;15976;47.938;7.758;2023-07-09T00:44:46;6.53;;;4.53;;
28844;SDS011;15976;47.938;7.758;2023-07-09T00:47:19;8.93;;;5.35;;
28844;SDS011;15976;47.938;7.758;2023-07-09T00:50:06;9.60;;;5.18;;
28844;SDS011;15976;47.938;7.758;2023-07-09T00:52:40;8.20;;;5.40;;
28844;SDS011;15976;47.938;7.758;2023-07-09T00:55:17;8.98;;;5.50;;
28844;SDS011;15976;47.938;7.758;2023-07-09T00:57:49;9.18;;;5.10;;
28844;SDS011;15976;47.938;7.758;2023-07-09T01:00:28;8.20;;;4.55;;
28844;SDS011;15976;47.938;7.758;2023-07-09T01:03:04;6.85;;;4.30;;
28844;SDS011;15976;47.938;7.758;2023-07-09T01:05:35;9.18;;;4.95;;
28844;SDS011;15976;47.938;7.758;2023-07-09T01:08:03;9.43;;;4.97;;
28844;SDS011;15976;47.938;7.758;2023-07-09T01:10:31;8.23;;;5.50;;
28844;SDS011;15976;47.938;7.758;2023-07-09T01:12:58;9.30;;;5.30;;
28844;SDS011;15976;47.938;7.758;2023-07-09T01:15:25;9.90;;;5.15;;
28844;SDS011;15976;47.938;7.758;2023-07-09T01:17:52;9.57;;;5.57;;
28844;SDS011;15976;47.938;7.758;2023-07-09T01:20:20;12.55;;;6.75;;
28844;SDS011;15976;47.938;7.758;2023-07-09T01:22:48;10.80;;;5.95;;
28844;SDS011;15976;47.938;7.758;2023-07-09T01:25:17;8.23;;;4.93;;
28844;SDS011;15976;47.938;7.758;2023-07-09T01:27:45;9.68;;;4.95;;
28844;SDS011;15976;47.938;7.758;2023-07-09T01:32:42;9.77;;;5.22;;
28844;SDS011;15976;47.938;7.758;2023-07-09T01:35:13;12.40;;;6.18;;
28844;SDS011;15976;47.938;7.758;2023-07-09T01:37:42;12.55;;;7.90;;
28844;SDS011;15976;47.938;7.758;2023-07-09T01:40:10;14.85;;;7.75;;
28844;SDS011;15976;47.938;7.758;2023-07-09T01:42:56;8.80;;;5.35;;
28844;SDS011;15976;47.938;7.758;2023-07-09T01:45:27;8.30;;;4.95;;
28844;SDS011;15976;47.938;7.758;2023-07-09T01:47:55;9.02;;;5.75;;
28844;SDS011;15976;47.938;7.758;2023-07-09T01:50:22;10.05;;;6.15;;
28844;SDS011;15976;47.938;7.758;2023-07-09T01:52:51;7.63;;;5.63;;
28844;SDS011;15976;47.938;7.758;2023-07-09T01:55:20;8.13;;;5.00;;
28844;SDS011;15976;47.938;7.758;2023-07-09T01:57:47;7.75;;;4.45;;
28844;SDS011;15976;47.938;7.758;2023-07-09T02:00:17;11.73;;;5.70;;
28844;SDS011;15976;47.938;7.758;2023-07-09T02:02:46;9.88;;;6.22;;
28844;SDS011;15976;47.938;7.758;2023-07-09T02:05:15;12.20;;;6.22;;
28844;SDS011;15976;47.938;7.758;2023-07-09T02:07:44;9.68;;;6.53;;
28844;SDS011;15976;47.938;7.758;2023-07-09T02:10:14;9.98;;;5.90;;
28844;SDS011;15976;47.938;7.758;2023-07-09T02:12:42;10.77;;;6.75;;
28844;SDS011;15976;47.938;7.758;2023-07-09T02:15:09;11.70;;;6.22;;
28844;SDS011;15976;47.938;7.758;2023-07-09T02:17:37;9.63;;;6.28;;
28844;SDS011;15976;47.938;7.758;2023-07-09T02:20:04;8.60;;;5.97;;
28844;SDS011;15976;47.938;7.758;2023-07-09T02:22:34;8.95;;;5.63;;
28844;SDS011;15976;47.938;7.758;2023-07-09T02:25:02;10.20;;;5.70;;
28844;SDS011;15976;47.938;7.758;2023-07-09T02:27:30;11.48;;;5.80;;
28844;SDS011;15976;47.938;7.758;2023-07-09T02:29:57;8.18;;;6.15;;
28844;SDS011;15976;47.938;7.758;2023-07-09T02:32:26;7.85;;;5.60;;
28844;SDS011;15976;47.938;7.758;2023-07-09T02:34:54;9.82;;;5.35;;
28844;SDS011;15976;47.938;7.758;2023-07-09T02:37:25;9.73;;;5.88;;
28844;SDS011;15976;47.938;7.758;2023-07-09T02:39:53;9.40;;;5.38;;
28844;SDS011;15976;47.938;7.758;2023-07-09T02:42:20;11.60;;;5.93;;
28844;SDS011;15976;47.938;7.758;2023-07-09T02:44:49;8.45;;;5.68;;
28844;SDS011;15976;47.938;7.758;2023-07-09T02:47:17;8.68;;;5.97;;
28844;SDS011;15976;47.938;7.758;2023-07-09T02:49:46;8.52;;;5.70;;
28844;SDS011;15976;47.938;7.758;2023-07-09T02:52:13;7.90;;;5.25;;
28844;SDS011;15976;47.938;7.758;2023-07-09T02:54:40;8.43;;;4.70;;
28844;SDS011;15976;47.938;7.758;2023-07-09T02:57:08;7.55;;;5.38;;
28844;SDS011;15976;47.938;7.758;2023-07-09T02:59:35;10.43;;;5.07;;
28844;SDS011;15976;47.938;7.758;2023-07-09T03:02:02;8.70;;;5.10;;
28844;SDS011;15976;47.938;7.758;2023-07-09T03:04:31;10.95;;;5.53;;
28844;SDS011;15976;47.938;7.758;2023-07-09T03:06:58;9.23;;;4.88;;
28844;SDS011;15976;47.938;7.758;2023-07-09T03:09:27;9.55;;;5.10;;
28844;SDS011;15976;47.938;7.758;2023-07-09T03:11:54;10.15;;;6.38;;
28844;SDS011;15976;47.938;7.758;2023-07-09T03:14:22;10.20;;;5.38;;
28844;SDS011;15976;47.938;7.758;2023-07-09T03:16:49;7.45;;;5.38;;
28844;SDS011;15976;47.938;7.758;2023-07-09T03:19:17;9.13;;;5.25;;
28844;SDS011;15976;47.938;7.758;2023-07-09T03:21:44;6.97;;;4.93;;
28844;SDS011;15976;47.938;7.758;2023-07-09T03:24:11;9.13;;;6.00;;
28844;SDS011;15976;47.938;7.758;2023-07-09T03:26:46;8.85;;;5.63;;
28844;SDS011;15976;47.938;7.758;2023-07-09T03:29:14;7.60;;;5.15;;
28844;SDS011;15976;47.938;7.758;2023-07-09T03:31:41;6.68;;;5.10;;
28844;SDS011;15976;47.938;7.758;2023-07-09T03:34:09;8.27;;;5.75;;
28844;SDS011;15976;47.938;7.758;2023-07-09T03:36:36;7.28;;;4.80;;
28844;SDS011;15976;47.938;7.758;2023-07-09T03:39:04;9.98;;;5.70;;
28844;SDS011;15976;47.938;7.758;2023-07-09T03:41:31;9.90;;;5.60;;
28844;SDS011;15976;47.938;7.758;2023-07-09T03:43:59;7.63;;;5.32;;
28844;SDS011;15976;47.938;7.758;2023-07-09T03:46:26;11.32;;;5.78;;
28844;SDS011;15976;47.938;7.758;2023-07-09T03:48:53;6.78;;;5.00;;
28844;SDS011;15976;47.938;7.758;2023-07-09T03:51:21;8.95;;;5.18;;
28844;SDS011;15976;47.938;7.758;2023-07-09T03:53:48;9.27;;;5.80;;
28844;SDS011;15976;47.938;7.758;2023-07-09T03:56:15;9.70;;;5.53;;
28844;SDS011;15976;47.938;7.758;2023-07-09T03:58:42;8.82;;;5.45;;
28844;SDS011;15976;47.938;7.758;2023-07-09T04:01:09;8.65;;;5.90;;
28844;SDS011;15976;47.938;7.758;2023-07-09T04:03:36;8.52;;;5.90;;
28844;SDS011;15976;47.938;7.758;2023-07-09T04:06:03;8.40;;;5.53;;
28844;SDS011;15976;47.938;7.758;2023-07-09T04:08:30;10.05;;;5.22;;
28844;SDS011;15976;47.938;7.758;2023-07-09T04:10:59;7.57;;;5.40;;
28844;SDS011;15976;47.938;7.758;2023-07-09T04:13:27;8.95;;;5.85;;
28844;SDS011;15976;47.938;7.758;2023-07-09T04:15:55;10.77;;;6.13;;
28844;SDS011;15976;47.938;7.758;2023-07-09T04:18:26;8.52;;;5.78;;
28844;SDS011;15976;47.938;7.758;2023-07-09T04:20:53;11.90;;;5.60;;
28844;SDS011;15976;47.938;7.758;2023-07-09T04:23:20;8.25;;;5.93;;
28844;SDS011;15976;47.938;7.758;2023-07-09T04:25:47;8.88;;;5.70;;
28844;SDS011;15976;47.938;7.758;2023-07-09T04:28:15;8.23;;;5.85;;
28844;SDS011;15976;47.938;7.758;2023-07-09T04:30:46;9.70;;;5.65;;
28844;SDS011;15976;47.938;7.758;2023-07-09T04:33:17;8.35;;;5.40;;
28844;SDS011;15976;47.938;7.758;2023-07-09T04:35:46;9.80;;;5.85;;
28844;SDS011;15976;47.938;7.758;2023-07-09T04:38:14;8.82;;;5.75;;
28844;SDS011;15976;47.938;7.758;2023-07-09T04:40:42;10.15;;;5.82;;
28844;SDS011;15976;47.938;7.758;2023-07-09T04:43:10;9.38;;;5.88;;
28844;SDS011;15976;47.938;7.758;2023-07-09T04:45:37;8.05;;;5.35;;
28844;SDS011;15976;47.938;7.758;2023-07-09T04:48:04;8.88;;;5.72;;
28844;SDS011;15976;47.938;7.758;2023-07-09T04:50:32;7.28;;;5.60;;
28844;SDS011;15976;47.938;7.758;2023-07-09T04:52:59;9.93;;;5.47;;
28844;SDS011;15976;47.938;7.758;2023-07-09T04:55:27;11.13;;;6.28;;
28844;SDS011;15976;47.938;7.758;2023-07-09T04:57:54;8.20;;;5.75;;
28844;SDS011;15976;47.938;7.758;2023-07-09T05:00:21;8.40;;;5.85;;
28844;SDS011;15976;47.938;7.758;2023-07-09T05:02:48;10.20;;;6.25;;
28844;SDS011;15976;47.938;7.758;2023-07-09T05:05:15;11.23;;;5.97;;
28844;SDS011;15976;47.938;7.758;2023-07-09T05:07:42;13.23;;;5.70;;
28844;SDS011;15976;47.938;7.758;2023-07-09T05:10:09;9.20;;;6.30;;
28844;SDS011;15976;47.938;7.758;2023-07-09T05:12:46;10.00;;;5.97;;
28844;SDS011;15976;47.938;7.758;2023-07-09T05:15:15;9.75;;;5.95;;
28844;SDS011;15976;47.938;7.758;2023-07-09T05:17:42;8.52;;;6.03;;
28844;SDS011;15976;47.938;7.758;2023-07-09T05:20:09;7.57;;;5.72;;
28844;SDS011;15976;47.938;7.758;2023-07-09T05:22:37;10.88;;;5.78;;
28844;SDS011;15976;47.938;7.758;2023-07-09T05:25:04;8.75;;;5.53;;
28844;SDS011;15976;47.938;7.758;2023-07-09T05:27:31;12.07;;;5.82;;
28844;SDS011;15976;47.938;7.758;2023-07-09T05:29:58;8.00;;;5.85;;
28844;SDS011;15976;47.938;7.758;2023-07-09T05:32:26;7.32;;;5.78;;
28844;SDS011;15976;47.938;7.758;2023-07-09T05:34:54;9.77;;;5.82;;
28844;SDS011;15976;47.938;7.758;2023-07-09T05:37:21;10.55;;;6.00;;
28844;SDS011;15976;47.938;7.758;2023-07-09T05:39:48;11.55;;;5.57;;
28844;SDS011;15976;47.938;7.758;2023-07-09T05:42:15;9.48;;;5.78;;
28844;SDS011;15976;47.938;7.758;2023-07-09T05:44:42;9.57;;;6.32;;
28844;SDS011;15976;47.938;7.758;2023-07-09T05:47:09;9.20;;;6.32;;
28844;SDS011;15976;47.938;7.758;2023-07-09T05:49:37;8.95;;;6.03;;
28844;SDS011;15976;47.938;7.758;2023-07-09T05:52:05;11.02;;;5.97;;
28844;SDS011;15976;47.938;7.758;2023-07-09T05:54:32;10.75;;;6.07;;
28844;SDS011;15976;47.938;7.758;2023-07-09T05:57:00;7.53;;;5.68;;
28844;SDS011;15976;47.938;7.758;2023-07-09T05:59:27;10.93;;;5.85;;
28844;SDS011;15976;47.938;7.758;2023-07-09T06:01:54;10.23;;;6.43;;
28844;SDS011;15976;47.938;7.758;2023-07-09T06:04:21;10.48;;;6.20;;
28844;SDS011;15976;47.938;7.758;2023-07-09T06:06:48;8.85;;;6.15;;
28844;SDS011;15976;47.938;7.758;2023-07-09T06:09:15;11.27;;;6.70;;
28844;SDS011;15976;47.938;7.758;2023-07-09T06:11:42;8.85;;;5.97;;
28844;SDS011;15976;47.938;7.758;2023-07-09T06:14:10;9.93;;;6.32;;
28844;SDS011;15976;47.938;7.758;2023-07-09T06:16:37;8.85;;;6.05;;
28844;SDS011;15976;47.938;7.758;2023-07-09T06:19:04;9.75;;;6.68;;
28844;SDS011;15976;47.938;7.758;2023-07-09T06:21:31;8.23;;;6.53;;
28844;SDS011;15976;47.938;7.758;2023-07-09T06:23:58;9.27;;;6.43;;
28844;SDS011;15976;47.938;7.758;2023-07-09T06:26:25;9.45;;;6.47;;
28844;SDS011;15976;47.938;7.758;2023-07-09T06:28:52;9.93;;;6.63;;
28844;SDS011;15976;47.938;7.758;2023-07-09T06:31:20;10.75;;;6.43;;
28844;SDS011;15976;47.938;7.758;2023-07-09T06:33:47;9.70;;;6.40;;
28844;SDS011;15976;47.938;7.758;2023-07-09T06:36:14;11.75;;;6.28;;
28844;SDS011;15976;47.938;7.758;2023-07-09T06:38:41;9.43;;;6.13;;
28844;SDS011;15976;47.938;7.758;2023-07-09T06:41:08;9.02;;;6.00;;
28844;SDS011;15976;47.938;7.758;2023-07-09T06:43:35;8.35;;;6.18;;
28844;SDS011;15976;47.938;7.758;2023-07-09T06:46:06;11.48;;;5.93;;
28844;SDS011;15976;47.938;7.758;2023-07-09T06:48:37;9.70;;;5.78;;
28844;SDS011;15976;47.938;7.758;2023-07-09T06:51:04;9.48;;;6.20;;
28844;SDS011;15976;47.938;7.758;2023-07-09T06:53:31;10.45;;;6.57;;
28844;SDS011;15976;47.938;7.758;2023-07-09T06:55:58;8.50;;;6.10;;
28844;SDS011;15976;47.938;7.758;2023-07-09T06:58:27;10.38;;;5.78;;
28844;SDS011;15976;47.938;7.758;2023-07-09T07:00:57;7.70;;;6.00;;
28844;SDS011;15976;47.938;7.758;2023-07-09T07:03:27;8.10;;;6.20;;
28844;SDS011;15976;47.938;7.758;2023-07-09T07:05:56;9.63;;;6.38;;
28844;SDS011;15976;47.938;7.758;2023-07-09T07:08:24;10.45;;;5.93;;
28844;SDS011;15976;47.938;7.758;2023-07-09T07:10:55;8.48;;;6.25;;
28844;SDS011;15976;47.938;7.758;2023-07-09T07:13:29;9.95;;;6.00;;
28844;SDS011;15976;47.938;7.758;2023-07-09T07:15:56;9.32;;;5.97;;
28844;SDS011;15976;47.938;7.758;2023-07-09T07:18:24;7.72;;;6.10;;
28844;SDS011;15976;47.938;7.758;2023-07-09T07:20:51;13.02;;;6.07;;
28844;SDS011;15976;47.938;7.758;2023-07-09T07:23:18;8.77;;;5.50;;
28844;SDS011;15976;47.938;7.758;2023-07-09T07:25:45;8.05;;;5.75;;
28844;SDS011;15976;47.938;7.758;2023-07-09T07:28:13;11.65;;;6.47;;
28844;SDS011;15976;47.938;7.758;2023-07-09T07:30:41;8.15;;;6.22;;
28844;SDS011;15976;47.938;7.758;2023-07-09T07:33:13;9.65;;;5.90;;
28844;SDS011;15976;47.938;7.758;2023-07-09T07:35:42;10.02;;;6.47;;
28844;SDS011;15976;47.938;7.758;2023-07-09T07:38:29;10.20;;;5.93;;
28844;SDS011;15976;47.938;7.758;2023-07-09T07:40:56;11.60;;;6.40;;
28844;SDS011;15976;47.938;7.758;2023-07-09T07:43:23;8.18;;;6.18;;
28844;SDS011;15976;47.938;7.758;2023-07-09T07:45:50;12.00;;;6.78;;
28844;SDS011;15976;47.938;7.758;2023-07-09T07:48:17;7.35;;;5.85;;
28844;SDS011;15976;47.938;7.758;2023-07-09T07:50:46;9.10;;;6.40;;
28844;SDS011;15976;47.938;7.758;2023-07-09T07:53:14;9.73;;;6.35;;
28844;SDS011;15976;47.938;7.758;2023-07-09T07:55:41;9.65;;;6.43;;
28844;SDS011;15976;47.938;7.758;2023-07-09T07:58:10;11.40;;;6.18;;
28844;SDS011;15976;47.938;7.758;2023-07-09T08:00:38;8.10;;;6.07;;
28844;SDS011;15976;47.938;7.758;2023-07-09T08:03:06;10.80;;;6.22;;
28844;SDS011;15976;47.938;7.758;2023-07-09T08:05:33;7.40;;;6.22;;
28844;SDS011;15976;47.938;7.758;2023-07-09T08:08:00;8.65;;;5.95;;
28844;SDS011;15976;47.938;7.758;2023-07-09T08:10:27;10.73;;;6.50;;
28844;SDS011;15976;47.938;7.758;2023-07-09T08:12:54;10.60;;;6.47;;
28844;SDS011;15976;47.938;7.758;2023-07-09T08:15:24;9.27;;;5.88;;
28844;SDS011;15976;47.938;7.758;2023-07-09T08:17:51;9.68;;;5.93;;
28844;SDS011;15976;47.938;7.758;2023-07-09T08:20:18;9.95;;;5.90;;
28844;SDS011;15976;47.938;7.758;2023-07-09T08:22:45;8.85;;;5.80;;
28844;SDS011;15976;47.938;7.758;2023-07-09T08:25:12;9.73;;;6.05;;
28844;SDS011;15976;47.938;7.758;2023-07-09T08:27:39;10.30;;;6.05;;
28844;SDS011;15976;47.938;7.758;2023-07-09T08:30:07;11.60;;;5.88;;
28844;SDS011;15976;47.938;7.758;2023-07-09T08:32:34;12.50;;;6.30;;
28844;SDS011;15976;47.938;7.758;2023-07-09T08:35:01;10.35;;;6.47;;
28844;SDS011;15976;47.938;7.758;2023-07-09T08:37:32;10.73;;;6.18;;
28844;SDS011;15976;47.938;7.758;2023-07-09T08:39:59;9.65;;;6.13;;
28844;SDS011;15976;47.938;7.758;2023-07-09T08:42:29;9.07;;;6.43;;
28844;SDS011;15976;47.938;7.758;2023-07-09T08:48:21;9.45;;;6.30;;
28844;SDS011;15976;47.938;7.758;2023-07-09T08:50:57;8.70;;;6.10;;
28844;SDS011;15976;47.938;7.758;2023-07-09T08:53:49;9.82;;;5.60;;
28844;SDS011;15976;47.938;7.758;2023-07-09T08:56:21;8.43;;;5.90;;
28844;SDS011;15976;47.938;7.758;2023-07-09T08:58:49;10.23;;;5.75;;
28844;SDS011;15976;47.938;7.758;2023-07-09T09:01:24;10.18;;;6.20;;
28844;SDS011;15976;47.938;7.758;2023-07-09T09:06:56;10.23;;;6.22;;
28844;SDS011;15976;47.938;7.758;2023-07-09T09:09:50;8.43;;;5.40;;
28844;SDS011;15976;47.938;7.758;2023-07-09T09:12:28;7.70;;;5.68;;
28844;SDS011;15976;47.938;7.758;2023-07-09T09:15:01;11.18;;;6.28;;
28844;SDS011;15976;47.938;7.758;2023-07-09T09:17:34;8.05;;;5.55;;
28844;SDS011;15976;47.938;7.758;2023-07-09T09:20:09;7.95;;;5.55;;
28844;SDS011;15976;47.938;7.758;2023-07-09T09:25:40;13.82;;;5.70;;
28844;SDS011;15976;47.938;7.758;2023-07-09T09:28:10;10.10;;;5.88;;
28844;SDS011;15976;47.938;7.758;2023-07-09T09:30:38;10.27;;;6.20;;
28844;SDS011;15976;47.938;7.758;2023-07-09T09:33:06;10.50;;;5.65;;
28844;SDS011;15976;47.938;7.758;2023-07-09T09:35:39;7.82;;;5.53;;
28844;SDS011;15976;47.938;7.758;2023-07-09T09:38:11;8.90;;;6.10;;
28844;SDS011;15976;47.938;7.758;2023-07-09T09:40:39;8.68;;;5.50;;
28844;SDS011;15976;47.938;7.758;2023-07-09T09:43:17;10.55;;;5.65;;
28844;SDS011;15976;47.938;7.758;2023-07-09T09:45:49;7.35;;;6.00;;
28844;SDS011;15976;47.938;7.758;2023-07-09T09:48:18;9.70;;;6.17;;
28844;SDS011;15976;47.938;7.758;2023-07-09T09:50:53;9.43;;;5.72;;
28844;SDS011;15976;47.938;7.758;2023-07-09T09:53:24;9.82;;;5.88;;
28844;SDS011;15976;47.938;7.758;2023-07-09T09:55:52;7.65;;;5.47;;
28844;SDS011;15976;47.938;7.758;2023-07-09T09:58:24;7.68;;;5.40;;
28844;SDS011;15976;47.938;7.758;2023-07-09T10:00:56;6.82;;;5.25;;
28844;SDS011;15976;47.938;7.758;2023-07-09T10:03:34;7.03;;;5.57;;
28844;SDS011;15976;47.938;7.758;2023-07-09T10:06:06;7.72;;;5.20;;
28844;SDS011;15976;47.938;7.758;2023-07-09T10:11:21;8.27;;;5.47;;
28844;SDS011;15976;47.938;7.758;2023-07-09T10:14:05;9.52;;;5.93;;
28844;SDS011;15976;47.938;7.758;2023-07-09T10:16:48;9.32;;;5.57;;
28844;SDS011;15976;47.938;7.758;2023-07-09T10:22:20;6.07;;;5.15;;
28844;SDS011;15976;47.938;7.758;2023-07-09T10:28:27;8.07;;;5.20;;
28844;SDS011;15976;47.938;7.758;2023-07-09T10:31:34;6.97;;;5.03;;
28844;SDS011;15976;47.938;7.758;2023-07-09T10:34:25;6.28;;;4.93;;
28844;SDS011;15976;47.938;7.758;2023-07-09T10:39:55;5.97;;;4.70;;
28844;SDS011;15976;47.938;7.758;2023-07-09T10:42:28;6.87;;;4.90;;
28844;SDS011;15976;47.938;7.758;2023-07-09T10:45:11;5.20;;;4.43;;
28844;SDS011;15976;47.938;7.758;2023-07-09T10:47:48;7.65;;;4.80;;
28844;SDS011;15976;47.938;7.758;2023-07-09T10:52:51;8.05;;;4.65;;
28844;SDS011;15976;47.938;7.758;2023-07-09T10:55:22;8.38;;;4.65;;
28844;SDS011;15976;47.938;7.758;2023-07-09T10:58:04;7.82;;;4.40;;
28844;SDS011;15976;47.938;7.758;2023-07-09T11:00:42;7.25;;;4.60;;
28844;SDS011;15976;47.938;7.758;2023-07-09T11:05:54;5.45;;;4.10;;
28844;SDS011;15976;47.938;7.758;2023-07-09T11:08:23;5.80;;;4.38;;
28844;SDS011;15976;47.938;7.758;2023-07-09T11:11:06;7.80;;;4.13;;
28844;SDS011;15976;47.938;7.758;2023-07-09T11:13:44;5.60;;;4.22;;
28844;SDS011;15976;47.938;7.758;2023-07-09T11:16:25;6.03;;;4.03;;
28844;SDS011;15976;47.938;7.758;2023-07-09T11:19:04;5.00;;;4.13;;
28844;SDS011;15976;47.938;7.758;2023-07-09T11:21:40;8.05;;;4.05;;
28844;SDS011;15976;47.938;7.758;2023-07-09T11:24:30;7.40;;;4.28;;
28844;SDS011;15976;47.938;7.758;2023-07-09T11:27:00;4.68;;;4.13;;
28844;SDS011;15976;47.938;7.758;2023-07-09T11:29:27;9.40;;;4.20;;
28844;SDS011;15976;47.938;7.758;2023-07-09T11:32:06;5.75;;;4.68;;
28844;SDS011;15976;47.938;7.758;2023-07-09T11:34:35;5.10;;;4.60;;
28844;SDS011;15976;47.938;7.758;2023-07-09T11:37:12;5.38;;;3.88;;
28844;SDS011;15976;47.938;7.758;2023-07-09T11:42:23;5.22;;;4.30;;
28844;SDS011;15976;47.938;7.758;2023-07-09T11:45:08;4.13;;;3.42;;
28844;SDS011;15976;47.938;7.758;2023-07-09T11:47:47;4.57;;;3.67;;
28844;SDS011;15976;47.938;7.758;2023-07-09T11:50:30;5.88;;;4.00;;
28844;SDS011;15976;47.938;7.758;2023-07-09T11:53:02;4.95;;;4.03;;
28844;SDS011;15976;47.938;7.758;2023-07-09T11:55:44;5.10;;;3.95;;
28844;SDS011;15976;47.938;7.758;2023-07-09T11:58:13;6.90;;;4.30;;
28844;SDS011;15976;47.938;7.758;2023-07-09T12:00:43;6.20;;;4.03;;
28844;SDS011;15976;47.938;7.758;2023-07-09T12:03:23;7.88;;;3.60;;
28844;SDS011;15976;47.938;7.758;2023-07-09T12:06:00;5.82;;;3.90;;
28844;SDS011;15976;47.938;7.758;2023-07-09T12:08:37;5.85;;;4.20;;
28844;SDS011;15976;47.938;7.758;2023-07-09T12:11:06;7.10;;;4.18;;
28844;SDS011;15976;47.938;7.758;2023-07-09T12:13:44;7.60;;;4.10;;
28844;SDS011;15976;47.938;7.758;2023-07-09T12:16:22;4.22;;;3.72;;
28844;SDS011;15976;47.938;7.758;2023-07-09T12:18:53;6.78;;;3.88;;
28844;SDS011;15976;47.938;7.758;2023-07-09T12:21:21;5.57;;;3.97;;
28844;SDS011;15976;47.938;7.758;2023-07-09T12:23:49;5.80;;;3.83;;
28844;SDS011;15976;47.938;7.758;2023-07-09T12:26:24;4.88;;;3.80;;
28844;SDS011;15976;47.938;7.758;2023-07-09T12:29:07;4.57;;;3.58;;
28844;SDS011;15976;47.938;7.758;2023-07-09T12:31:58;6.80;;;4.25;;
28844;SDS011;15976;47.938;7.758;2023-07-09T12:35:23;5.53;;;3.78;;
28844;SDS011;15976;47.938;7.758;2023-07-09T12:38:22;5.40;;;4.10;;
28844;SDS011;15976;47.938;7.758;2023-07-09T12:42:09;5.80;;;3.72;;
28844;SDS011;15976;47.938;7.758;2023-07-09T12:45:17;5.97;;;4.15;;
28844;SDS011;15976;47.938;7.758;2023-07-09T12:48:24;5.32;;;3.80;;
28844;SDS011;15976;47.938;7.758;2023-07-09T12:51:24;5.00;;;4.10;;
28844;SDS011;15976;47.938;7.758;2023-07-09T12:54:14;5.57;;;4.10;;
28844;SDS011;15976;47.938;7.758;2023-07-09T12:56:55;3.95;;;3.50;;
28844;SDS011;15976;47.938;7.758;2023-07-09T12:59:47;5.50;;;3.85;;
28844;SDS011;15976;47.938;7.758;2023-07-09T13:02:22;8.30;;;4.10;;
28844;SDS011;15976;47.938;7.758;2023-07-09T13:05:17;5.57;;;3.95;;
28844;SDS011;15976;47.938;7.758;2023-07-09T13:07:54;6.82;;;3.85;;
28844;SDS011;15976;47.938;7.758;2023-07-09T13:11:13;6.07;;;3.80;;
28844;SDS011;15976;47.938;7.758;2023-07-09T13:14:28;5.25;;;4.20;;
28844;SDS011;15976;47.938;7.758;2023-07-09T13:17:27;6.13;;;4.00;;
28844;SDS011;15976;47.938;7.758;2023-07-09T13:20:16;5.03;;;3.95;;
28844;SDS011;15976;47.938;7.758;2023-07-09T13:23:20;6.20;;;3.95;;
28844;SDS011;15976;47.938;7.758;2023-07-09T13:26:09;6.75;;;3.90;;
28844;SDS011;15976;47.938;7.758;2023-07-09T13:29:00;4.55;;;3.67;;
28844;SDS011;15976;47.938;7.758;2023-07-09T13:31:44;6.78;;;3.90;;
28844;SDS011;15976;47.938;7.758;2023-07-09T13:36:49;7.72;;;4.10;;
28844;SDS011;15976;47.938;7.758;2023-07-09T13:39:17;8.77;;;4.10;;
28844;SDS011;15976;47.938;7.758;2023-07-09T13:41:46;6.53;;;4.00;;
28844;SDS011;15976;47.938;7.758;2023-07-09T13:44:19;6.10;;;3.67;;
28844;SDS011;15976;47.938;7.758;2023-07-09T13:46:51;9.27;;;4.13;;
28844;SDS011;15976;47.938;7.758;2023-07-09T13:49:19;6.40;;;4.03;;
28844;SDS011;15976;47.938;7.758;2023-07-09T13:51:48;5.53;;;4.20;;
28844;SDS011;15976;47.938;7.758;2023-07-09T13:54:29;7.40;;;4.15;;
28844;SDS011;15976;47.938;7.758;2023-07-09T13:57:11;5.70;;;3.80;;
28844;SDS011;15976;47.938;7.758;2023-07-09T13:59:50;6.78;;;3.95;;
28844;SDS011;15976;47.938;7.758;2023-07-09T14:02:26;5.43;;;3.78;;
28844;SDS011;15976;47.938;7.758;2023-07-09T14:05:06;5.97;;;3.88;;
28844;SDS011;15976;47.938;7.758;2023-07-09T14:07:40;6.65;;;4.03;;
28844;SDS011;15976;47.938;7.758;2023-07-09T14:12:42;5.65;;;3.95;;
28844;SDS011;15976;47.938;7.758;2023-07-09T14:15:18;6.40;;;4.25;;
28844;SDS011;15976;47.938;7.758;2023-07-09T14:17:48;5.10;;;3.65;;
28844;SDS011;15976;47.938;7.758;2023-07-09T14:23:39;5.70;;;4.32;;
28844;SDS011;15976;47.938;7.758;2023-07-09T14:26:46;8.27;;;4.15;;
28844;SDS011;15976;47.938;7.758;2023-07-09T14:29:46;6.53;;;4.15;;
28844;SDS011;15976;47.938;7.758;2023-07-09T14:35:25;10.27;;;4.68;;
28844;SDS011;15976;47.938;7.758;2023-07-09T14:37:56;5.70;;;3.88;;
28844;SDS011;15976;47.938;7.758;2023-07-09T14:40:31;7.40;;;3.95;;
28844;SDS011;15976;47.938;7.758;2023-07-09T14:54:44;5.50;;;3.47;;
28844;SDS011;15976;47.938;7.758;2023-07-09T14:57:51;6.75;;;4.72;;
28844;SDS011;15976;47.938;7.758;2023-07-09T15:04:58;10.10;;;3.75;;
28844;SDS011;15976;47.938;7.758;2023-07-09T15:08:00;7.13;;;3.95;;
28844;SDS011;15976;47.938;7.758;2023-07-09T15:11:20;7.05;;;4.20;;
28844;SDS011;15976;47.938;7.758;2023-07-09T15:19:24;7.75;;;3.95;;
28844;SDS011;15976;47.938;7.758;2023-07-09T15:21:57;5.95;;;3.90;;
28844;SDS011;15976;47.938;7.758;2023-07-09T15:24:44;7.78;;;4.05;;
28844;SDS011;15976;47.938;7.758;2023-07-09T15:27:20;5.85;;;4.25;;
28844;SDS011;15976;47.938;7.758;2023-07-09T15:29:53;4.75;;;3.90;;
28844;SDS011;15976;47.938;7.758;2023-07-09T15:32:24;8.55;;;4.13;;
28844;SDS011;15976;47.938;7.758;2023-07-09T15:37:21;7.65;;;4.18;;
28844;SDS011;15976;47.938;7.758;2023-07-09T15:39:50;6.13;;;4.00;;
28844;SDS011;15976;47.938;7.758;2023-07-09T15:42:19;5.93;;;3.72;;
28844;SDS011;15976;47.938;7.758;2023-07-09T15:44:54;5.65;;;3.95;;
28844;SDS011;15976;47.938;7.758;2023-07-09T15:47:28;7.55;;;3.95;;
28844;SDS011;15976;47.938;7.758;2023-07-09T15:50:01;5.35;;;3.60;;
28844;SDS011;15976;47.938;7.758;2023-07-09T15:52:31;7.60;;;3.97;;
28844;SDS011;15976;47.938;7.758;2023-07-09T15:55:00;7.53;;;3.67;;
28844;SDS011;15976;47.938;7.758;2023-07-09T15:57:30;8.77;;;3.95;;
28844;SDS011;15976;47.938;7.758;2023-07-09T16:02:54;8.95;;;3.97;;
28844;SDS011;15976;47.938;7.758;2023-07-09T16:05:46;6.55;;;4.00;;
28844;SDS011;15976;47.938;7.758;2023-07-09T16:08:19;5.72;;;4.30;;
28844;SDS011;15976;47.938;7.758;2023-07-09T16:10:59;6.65;;;4.10;;
28844;SDS011;15976;47.938;7.758;2023-07-09T16:13:27;6.63;;;4.28;;
28844;SDS011;15976;47.938;7.758;2023-07-09T16:15:57;7.80;;;3.70;;
28844;SDS011;15976;47.938;7.758;2023-07-09T16:18:27;7.35;;;4.20;;
28844;SDS011;15976;47.938;7.758;2023-07-09T16:20:58;6.25;;;3.88;;
28844;SDS011;15976;47.938;7.758;2023-07-09T16:23:28;8.50;;;4.55;;
28844;SDS011;15976;47.938;7.758;2023-07-09T16:25:57;10.07;;;4.20;;
28844;SDS011;15976;47.938;7.758;2023-07-09T16:28:27;7.65;;;4.10;;
28844;SDS011;15976;47.938;7.758;2023-07-09T16:30:57;12.32;;;6.82;;
28844;SDS011;15976;47.938;7.758;2023-07-09T16:33:29;8.52;;;4.07;;